AirNav   Duncan Aviation - Near you to keep you flying
 
 1080 users online  

SN18 Sills Air Park
Augusta, Kansas, USA

GOING TO AUGUSTA?


FAA INFORMATION EFFECTIVE 30 DECEMBER 2021

Location

FAA Identifier: SN18
Lat/Long: 37-39-56.5400N 097-01-33.7700W
37-39.942333N 097-01.562833W
37.6657056,-97.0260472
(estimated)
Elevation: 1295 ft. / 395 m (estimated)
Variation: 07E (1985)
From city: 2 miles W of AUGUSTA, KS
Time zone: UTC -6 (UTC -5 during Daylight Saving Time)
Zip code: 67010

Airport Operations

Airport use: Private use. Permission required prior to landing
Activation date: 07/1966
Control tower: no
ARTCC: KANSAS CITY CENTER
FSS: WICHITA FLIGHT SERVICE STATION
Attendance: UNATNDD
Wind indicator: yes
Segmented circle: no

Airport Communications

WX AWOS-3P at 3AU (2.5 nm W): 124.175 (316-733-6696)
WX AWOS-3 at 1K1 (8 nm NW): 118.3 (316-530-6004)
WX AWOS-3PT at BEC (9 nm W): 119.45 (316-515-7116)
WX ASOS at AAO (10 nm NW): 134.025 (316-636-2541)
WX AWOS-3P at EQA (12 nm NE): 120.875 (316-322-8095)
WX ASOS at ICT (19 nm W): PHONE 316-945-8022

Nearby radio navigation aids

VOR radial/distance  VOR name  Freq  Var
ICTr093/26.9WICHITA VORTAC113.8007E

Airport Services

Airframe service: NONE
Powerplant service: NONE

Runway Information

Runway 17/35

Dimensions: 2400 x 30 ft. / 732 x 9 m
Surface: gravel, in fair condition
RUNWAY 17  RUNWAY 35
Traffic pattern: leftleft
Obstructions: plinepline

Runway 8/26

Dimensions: 1100 x 30 ft. / 335 x 9 m
Surface: turf, in fair condition
RUNWAY 8  RUNWAY 26
Traffic pattern: leftleft

Airport Ownership and Management from official FAA records

Ownership: Privately-owned
Owner: CALEB & AMANDA NEUENSMITH
9852 SW 110TH ST
AUGUSTA, KS 67010
Phone 316-253-4636
Manager: CALEB & AMANDA NEUENSMITH
9852 SW 110TH ST
AUGUSTA, KS 67010
Phone 316-253-4636

Additional Remarks

FOR CD CTC WICHITA APCH AT 316-350-1520.

Instrument Procedures

There are no published instrument procedures at SN18.

Some nearby airports with instrument procedures:

3AU - Augusta Municipal Airport (2 nm W)
1K1 - Lloyd Stearman Field Airport (8 nm NW)
KBEC - Beech Factory Airport (9 nm W)
KAAO - Colonel James Jabara Airport (10 nm NW)
KCEA - Cessna Aircraft Field Airport (11 nm W)
KIAB - Mc Connell Air Force Base (12 nm W)
KEQA - El Dorado/Capt Jack Thomas Memorial Airport (12 nm NE)
KICT - Wichita Dwight D Eisenhower National Airport (19 nm W)
 
Loc | Ops | Rwys | IFR | FBO | Links
Com | Nav | Svcs | Stats | Notes
Area around SN18 (Sills Air Park)
 
Road maps at: MapQuest Bing Google
 
Aerial photo
No photo
 
Sectional chart

 
Airport distance calculator
Flying to Sills Air Park? Find the distance to fly.

From to SN18

Sunrise and sunset
Times for 24-Jan-2022
 Local
(UTC-6)
 Zulu
(UTC)
Morning civil twilight07:1113:11
Sunrise07:3913:39
Sunset17:4223:42
Evening civil twilight18:1000:10

Current date and time
Zulu (UTC)  24-Jan-2022 14:20:12
Local (UTC-6)  24-Jan-2022 08:20:12
 
METAR
K3AU 
2nm W 
241355Z AUTO 24003KT 10SM CLR 00/M05 A2979 RMK AO2
K1K1 
8nm NW 
241350Z AUTO 26003KT 10SM CLR 03/M04 A2978 RMK AO2 T00281038
KBEC 
9nm W 
241355Z AUTO 24006KT 10SM CLR 02/M03 A2978 RMK AO2 T00221035
KAAO 
10nm NW 
241354Z AUTO 25009KT 10SM CLR 04/M04 A2978 RMK AO2 SLP089 T00391039
KIAB 
12nm W 
241356Z AUTO 27008KT 10SM CLR 02/M04 A2979 RMK AO2 SLP099 T00201039 $
KEQA 
12nm NE 
241355Z AUTO 23004KT 10SM CLR 01/M02 A2978 RMK AO2
KICT 
19nm W 
241353Z 25006KT 10SM FEW180 00/M04 A2979 RMK AO2 SLP094 T00001044
TAF
KIAB 
12nm W 
241000Z 2410/2516 VRB06KT 9999 FEW100 QNH2978INS BECMG 2418/2419 32010G20KT 9999 FEW120 QNH2982INS BECMG 2505/2506 02009KT 9999 SCT050 QNH2986INS BECMG 2514/2515 04010G15KT 9999 BKN050 620509 QNH3025INS TX14/2420Z TNM06/2510Z
KICT 
19nm W 
241125Z 2412/2512 25007KT P6SM BKN120 FM241500 28010KT P6SM SCT150 FM241700 35016G26KT P6SM SCT200 FM250000 01013KT P6SM SCT250
NOTAMs
Click for the latest NOTAMs
NOTAMs are issued by the DoD/FAA and will open in a separate window not controlled by AirNav.

 

 
 

Would you like to see your business listed on this page?

 If your business provides an interesting product or service to pilots, flight crews, aircraft, or users of the Sills Air Park, you should consider listing it here.  To start the listing process, click on the button below
 
Add a business
 

Other Pages about Sills Air Park

Update a link
 
Copyright © AirNav, LLC. All rights reserved. Privacy Policy  Contact